PWSweather.com
Personal Weather Stations
Station Observations
ME1989
Sicily, Barcellona Pozzo Di GottoIT

SicilyBarcellona Pozzo Di GottoIT

Lat: 38.1487398, Lon: 15.2113962

Elevation: 131

Station Type: Peet Bros

Latest ConditionsUpdated 3:00:00 PM GMT+01:01 Sunday, Jan 22, 2017
Currently Today's Max Today's Min Today's Average
Temperature 60.2°F15.7°C 60.9°F16.1°C 58.7°F14.8°C 59.5°F15.3°C
Dew Point 48.8°F9.3°C 49.5°F9.7°C 43.3°F6.3°C 46.3°F7.9°C
Winds 8.1 mph SE13.0 kmh SE 18.4 mph SE29.6 kmh SE - 10.1 mph 16.3 kmh
Wind Gusts 11.5 mph18.5 kmh 42.6 mph68.6 kmh - -
Humidity 66% 69% 56% 62%
Pressure 30.04 in1017.3 mb 30.13 in1020.3 mb 30.04 in1017.3 mb -
Precipitation - 0.01 in0.3 mm - -
Hour Temp Dew Point Humidity Winds Wind Gusts Pressure Precip Precip Rate Daily Precip Total
03:00 PM 60.2°F15.7°C 48.8°F9.3°C 66% 8.1 mph SE13.0 kmh SE 11.5 mph18.5 kmh 30.04 in1017.3 mb - 0.00 in0.0 mm 0.01 in0.3 mm
02:50 PM 60.1°F15.6°C 48.7°F9.3°C 66% 11.5 mph E18.5 kmh E 20.7 mph33.3 kmh 30.04 in1017.3 mb - 0.00 in0.0 mm 0.01 in0.3 mm
02:40 PM 59.5°F15.3°C 49.3°F9.6°C 69% 12.7 mph SE20.4 kmh SE 20.7 mph33.3 kmh 30.05 in1017.6 mb - 0.01 in0.3 mm 0.01 in0.3 mm
02:30 PM 60.4°F15.8°C 49.4°F9.7°C 67% 6.9 mph E11.1 kmh E 10.4 mph16.7 kmh 30.04 in1017.3 mb - 0.00 in0.0 mm 0.00 in0.0 mm
02:20 PM 60.5°F15.8°C 49.5°F9.7°C 67% 5.8 mph SE9.3 kmh SE 8.1 mph13.0 kmh 30.05 in1017.6 mb - 0.00 in0.0 mm 0.00 in0.0 mm
02:10 PM 60.5°F15.8°C 47.9°F8.8°C 63% 15.0 mph E24.1 kmh E 21.9 mph35.2 kmh 30.05 in1017.6 mb - 0.00 in0.0 mm 0.00 in0.0 mm
02:00 PM 60.7°F15.9°C 48.0°F8.9°C 63% 13.8 mph ESE22.2 kmh ESE 17.3 mph27.8 kmh 30.05 in1017.6 mb - 0.00 in0.0 mm 0.00 in0.0 mm
01:50 PM 60.3°F15.7°C 48.5°F9.2°C 65% 12.7 mph SE20.4 kmh SE 23.0 mph37.0 kmh 30.05 in1017.6 mb - 0.00 in0.0 mm 0.00 in0.0 mm
01:40 PM 60.3°F15.7°C 48.9°F9.4°C 66% 11.5 mph ESE18.5 kmh ESE 28.8 mph46.3 kmh 30.05 in1017.6 mb - 0.00 in0.0 mm 0.00 in0.0 mm
01:30 PM 60.8°F16.0°C 47.7°F8.7°C 62% 10.4 mph ESE16.7 kmh ESE 13.8 mph22.2 kmh 30.06 in1017.9 mb - 0.00 in0.0 mm 0.00 in0.0 mm
01:20 PM 60.9°F16.1°C 48.2°F9.0°C 63% 6.9 mph SE11.1 kmh SE 9.2 mph14.8 kmh 30.06 in1017.9 mb - 0.00 in0.0 mm 0.00 in0.0 mm
01:10 PM 60.8°F16.0°C 47.7°F8.7°C 62% 12.7 mph SE20.4 kmh SE 16.1 mph25.9 kmh 30.07 in1018.3 mb - 0.00 in0.0 mm 0.00 in0.0 mm
01:00 PM 60.6°F15.9°C 48.4°F9.1°C 64% 10.4 mph SE16.7 kmh SE 21.9 mph35.2 kmh 30.07 in1018.3 mb - 0.00 in0.0 mm 0.00 in0.0 mm
12:50 PM 60.7°F15.9°C 48.1°F8.9°C 63% 8.1 mph SE13.0 kmh SE 9.2 mph14.8 kmh 30.07 in1018.3 mb - 0.00 in0.0 mm 0.00 in0.0 mm
12:40 PM 60.4°F15.8°C 48.6°F9.2°C 65% 8.1 mph SE13.0 kmh SE 15.0 mph24.1 kmh 30.08 in1018.6 mb - 0.00 in0.0 mm 0.00 in0.0 mm
12:30 PM 60.0°F15.6°C 48.6°F9.2°C 66% 11.5 mph SE18.5 kmh SE 18.4 mph29.6 kmh 30.09 in1019.0 mb - 0.00 in0.0 mm 0.00 in0.0 mm
12:20 PM 59.9°F15.5°C 49.0°F9.4°C 67% 13.8 mph SE22.2 kmh SE 17.3 mph27.8 kmh 30.09 in1019.0 mb - 0.00 in0.0 mm 0.00 in0.0 mm
12:10 PM 59.8°F15.4°C 48.8°F9.3°C 67% 12.7 mph ESE20.4 kmh ESE 21.9 mph35.2 kmh 30.09 in1019.0 mb - 0.00 in0.0 mm 0.00 in0.0 mm
12:00 PM 59.7°F15.4°C 48.3°F9.1°C 66% 12.7 mph ESE20.4 kmh ESE 18.4 mph29.6 kmh 30.09 in1019.0 mb - 0.00 in0.0 mm 0.00 in0.0 mm
11:50 AM 59.7°F15.4°C 48.7°F9.3°C 67% 11.5 mph SE18.5 kmh SE 19.6 mph31.5 kmh 30.10 in1019.3 mb - 0.00 in0.0 mm 0.00 in0.0 mm
11:40 AM 59.4°F15.2°C 48.5°F9.2°C 67% 13.8 mph E22.2 kmh E 17.3 mph27.8 kmh 30.10 in1019.3 mb - 0.00 in0.0 mm 0.00 in0.0 mm
11:30 AM 59.5°F15.3°C 48.5°F9.2°C 67% 11.5 mph SE18.5 kmh SE 26.5 mph42.6 kmh 30.11 in1019.6 mb - 0.00 in0.0 mm 0.00 in0.0 mm
11:20 AM 59.5°F15.3°C 48.1°F8.9°C 66% 9.2 mph ESE14.8 kmh ESE 11.5 mph18.5 kmh 30.10 in1019.3 mb - 0.00 in0.0 mm 0.00 in0.0 mm
11:10 AM 59.6°F15.3°C 48.2°F9.0°C 66% 8.1 mph SE13.0 kmh SE 17.3 mph27.8 kmh 30.11 in1019.6 mb - 0.00 in0.0 mm 0.00 in0.0 mm
11:00 AM 59.0°F15.0°C 48.5°F9.2°C 68% 15.0 mph E24.1 kmh E 21.9 mph35.2 kmh 30.11 in1019.6 mb - 0.00 in0.0 mm 0.00 in0.0 mm
10:50 AM 59.4°F15.2°C 48.0°F8.9°C 66% 18.4 mph SE29.6 kmh SE 20.7 mph33.3 kmh 30.12 in1020.0 mb - 0.00 in0.0 mm 0.00 in0.0 mm
10:40 AM 59.5°F15.3°C 48.1°F8.9°C 66% 12.7 mph ESE20.4 kmh ESE 17.3 mph27.8 kmh 30.12 in1020.0 mb - 0.00 in0.0 mm 0.00 in0.0 mm
10:30 AM 59.5°F15.3°C 48.1°F8.9°C 66% 8.1 mph ESE13.0 kmh ESE 17.3 mph27.8 kmh 30.11 in1019.6 mb - 0.00 in0.0 mm 0.00 in0.0 mm
10:20 AM 59.3°F15.2°C 48.0°F8.9°C 66% 11.5 mph ESE18.5 kmh ESE 12.7 mph20.4 kmh 30.11 in1019.6 mb - 0.00 in0.0 mm 0.00 in0.0 mm
10:10 AM 59.2°F15.1°C 48.3°F9.1°C 67% 10.4 mph E16.7 kmh E 20.7 mph33.3 kmh 30.12 in1020.0 mb - 0.00 in0.0 mm 0.00 in0.0 mm
10:00 AM 59.0°F15.0°C 48.1°F8.9°C 67% 16.1 mph E25.9 kmh E 24.2 mph38.9 kmh 30.11 in1019.6 mb - 0.00 in0.0 mm 0.00 in0.0 mm
09:50 AM 59.2°F15.1°C 48.2°F9.0°C 67% 10.4 mph SE16.7 kmh SE 13.8 mph22.2 kmh 30.12 in1020.0 mb - 0.00 in0.0 mm 0.00 in0.0 mm
09:40 AM 59.0°F15.0°C 48.1°F8.9°C 67% 9.2 mph SE14.8 kmh SE 12.7 mph20.4 kmh 30.12 in1020.0 mb - 0.00 in0.0 mm 0.00 in0.0 mm
09:30 AM 59.0°F15.0°C 47.3°F8.5°C 65% 15.0 mph ESE24.1 kmh ESE 17.3 mph27.8 kmh 30.11 in1019.6 mb - 0.00 in0.0 mm 0.00 in0.0 mm
09:20 AM 58.8°F14.9°C 47.1°F8.4°C 65% 17.3 mph SE27.8 kmh SE 28.8 mph46.3 kmh 30.11 in1019.6 mb - 0.00 in0.0 mm 0.00 in0.0 mm
09:10 AM 59.3°F15.2°C 46.7°F8.2°C 63% 6.9 mph ESE11.1 kmh ESE 15.0 mph24.1 kmh 30.12 in1020.0 mb - 0.00 in0.0 mm 0.00 in0.0 mm
09:00 AM 59.3°F15.2°C 47.2°F8.4°C 64% 3.5 mph E5.6 kmh E 9.2 mph14.8 kmh 30.11 in1019.6 mb - 0.00 in0.0 mm 0.00 in0.0 mm
08:50 AM 59.1°F15.1°C 46.9°F8.3°C 64% 8.1 mph E13.0 kmh E 18.4 mph29.6 kmh 30.11 in1019.6 mb - 0.00 in0.0 mm 0.00 in0.0 mm
08:40 AM 59.2°F15.1°C 46.7°F8.2°C 63% 6.9 mph SE11.1 kmh SE 16.1 mph25.9 kmh 30.11 in1019.6 mb - 0.00 in0.0 mm 0.00 in0.0 mm
08:30 AM 59.1°F15.1°C 46.5°F8.1°C 63% 8.1 mph E13.0 kmh E 16.1 mph25.9 kmh 30.11 in1019.6 mb - 0.00 in0.0 mm 0.00 in0.0 mm
08:20 AM 59.2°F15.1°C 46.6°F8.1°C 63% 6.9 mph E11.1 kmh E 12.7 mph20.4 kmh 30.11 in1019.6 mb - 0.00 in0.0 mm 0.00 in0.0 mm
08:10 AM 59.1°F15.1°C 46.5°F8.1°C 63% 8.1 mph E13.0 kmh E 9.2 mph14.8 kmh 30.11 in1019.6 mb - 0.00 in0.0 mm 0.00 in0.0 mm
08:00 AM 59.2°F15.1°C 46.2°F7.9°C 62% 5.8 mph SW9.3 kmh SW 12.7 mph20.4 kmh 30.11 in1019.6 mb - 0.00 in0.0 mm 0.00 in0.0 mm
07:50 AM 59.2°F15.1°C 45.8°F7.7°C 61% 5.8 mph E9.3 kmh E 10.4 mph16.7 kmh 30.10 in1019.3 mb - 0.00 in0.0 mm 0.00 in0.0 mm
07:40 AM 59.2°F15.1°C 46.2°F7.9°C 62% 3.5 mph NNE5.6 kmh NNE 10.4 mph16.7 kmh 30.10 in1019.3 mb - 0.00 in0.0 mm 0.00 in0.0 mm
07:30 AM 59.1°F15.1°C 45.2°F7.3°C 60% 8.1 mph S13.0 kmh S 9.2 mph14.8 kmh 30.10 in1019.3 mb - 0.00 in0.0 mm 0.00 in0.0 mm
07:20 AM 58.7°F14.8°C 44.9°F7.2°C 60% 18.4 mph S29.6 kmh S 28.8 mph46.3 kmh 30.11 in1019.6 mb - 0.00 in0.0 mm 0.00 in0.0 mm
07:10 AM 59.1°F15.1°C 45.2°F7.3°C 60% 6.9 mph E11.1 kmh E 11.5 mph18.5 kmh 30.11 in1019.6 mb - 0.00 in0.0 mm 0.00 in0.0 mm
07:00 AM 59.0°F15.0°C 45.6°F7.6°C 61% 6.9 mph ESE11.1 kmh ESE 10.4 mph16.7 kmh 30.10 in1019.3 mb - 0.00 in0.0 mm 0.00 in0.0 mm
06:50 AM 58.7°F14.8°C 45.7°F7.6°C 62% 11.5 mph ESE18.5 kmh ESE 13.8 mph22.2 kmh 30.09 in1019.0 mb - 0.00 in0.0 mm 0.00 in0.0 mm
06:40 AM 58.7°F14.8°C 46.1°F7.8°C 63% 12.7 mph E20.4 kmh E 16.1 mph25.9 kmh 30.09 in1019.0 mb - 0.00 in0.0 mm 0.00 in0.0 mm
06:30 AM 59.3°F15.2°C 44.9°F7.2°C 59% 5.8 mph WNW9.3 kmh WNW 10.4 mph16.7 kmh 30.10 in1019.3 mb - 0.00 in0.0 mm 0.00 in0.0 mm
06:20 AM 59.4°F15.2°C 44.6°F7.0°C 58% 1.2 mph ESE1.9 kmh ESE 2.3 mph3.7 kmh 30.10 in1019.3 mb - 0.00 in0.0 mm 0.00 in0.0 mm
06:10 AM 58.9°F14.9°C 44.1°F6.7°C 58% 15.0 mph SE24.1 kmh SE 32.2 mph51.8 kmh 30.09 in1019.0 mb - 0.00 in0.0 mm 0.00 in0.0 mm
06:00 AM 59.0°F15.0°C 43.3°F6.3°C 56% 15.0 mph SSE24.1 kmh SSE 19.6 mph31.5 kmh 30.10 in1019.3 mb - 0.00 in0.0 mm 0.00 in0.0 mm
05:50 AM 59.1°F15.1°C 43.9°F6.6°C 57% 12.7 mph SSE20.4 kmh SSE 21.9 mph35.2 kmh 30.09 in1019.0 mb - 0.00 in0.0 mm 0.00 in0.0 mm
05:40 AM 59.3°F15.2°C 44.0°F6.7°C 57% 6.9 mph SE11.1 kmh SE 11.5 mph18.5 kmh 30.09 in1019.0 mb - 0.00 in0.0 mm 0.00 in0.0 mm
05:30 AM 59.3°F15.2°C 44.5°F6.9°C 58% 8.1 mph ESE13.0 kmh ESE 11.5 mph18.5 kmh 30.09 in1019.0 mb - 0.00 in0.0 mm 0.00 in0.0 mm
05:20 AM 59.4°F15.2°C 44.6°F7.0°C 58% 4.6 mph ESE7.4 kmh ESE 8.1 mph13.0 kmh 30.08 in1018.6 mb - 0.00 in0.0 mm 0.00 in0.0 mm
05:10 AM 59.3°F15.2°C 44.5°F6.9°C 58% 6.9 mph S11.1 kmh S 20.7 mph33.3 kmh 30.09 in1019.0 mb - 0.00 in0.0 mm 0.00 in0.0 mm
05:00 AM 59.4°F15.2°C 45.1°F7.3°C 59% 6.9 mph E11.1 kmh E 11.5 mph18.5 kmh 30.09 in1019.0 mb - 0.00 in0.0 mm 0.00 in0.0 mm
04:50 AM 59.7°F15.4°C 44.8°F7.1°C 58% 4.6 mph N7.4 kmh N 9.2 mph14.8 kmh 30.09 in1019.0 mb - 0.00 in0.0 mm 0.00 in0.0 mm
04:40 AM 59.3°F15.2°C 44.5°F6.9°C 58% 12.7 mph WSW20.4 kmh WSW 19.6 mph31.5 kmh 30.09 in1019.0 mb - 0.00 in0.0 mm 0.00 in0.0 mm
04:30 AM 59.1°F15.1°C 46.1°F7.8°C 62% 8.1 mph ENE13.0 kmh ENE 11.5 mph18.5 kmh 30.09 in1019.0 mb - 0.00 in0.0 mm 0.00 in0.0 mm
04:20 AM 59.3°F15.2°C 46.3°F7.9°C 62% 4.6 mph WNW7.4 kmh WNW 4.6 mph7.4 kmh 30.08 in1018.6 mb - 0.00 in0.0 mm 0.00 in0.0 mm
04:10 AM 59.4°F15.2°C 45.5°F7.5°C 60% 5.8 mph ESE9.3 kmh ESE 13.8 mph22.2 kmh 30.09 in1019.0 mb - 0.00 in0.0 mm 0.00 in0.0 mm
04:00 AM 59.2°F15.1°C 45.8°F7.7°C 61% 8.1 mph ESE13.0 kmh ESE 9.2 mph14.8 kmh 30.09 in1019.0 mb - 0.00 in0.0 mm 0.00 in0.0 mm
03:50 AM 59.5°F15.3°C 45.2°F7.3°C 59% 4.6 mph NE7.4 kmh NE 6.9 mph11.1 kmh 30.09 in1019.0 mb - 0.00 in0.0 mm 0.00 in0.0 mm
03:40 AM 59.1°F15.1°C 44.4°F6.9°C 58% 12.7 mph SE20.4 kmh SE 16.1 mph25.9 kmh 30.09 in1019.0 mb - 0.00 in0.0 mm 0.00 in0.0 mm
03:30 AM 59.0°F15.0°C 44.3°F6.8°C 58% 18.4 mph SE29.6 kmh SE 28.8 mph46.3 kmh 30.11 in1019.6 mb - 0.00 in0.0 mm 0.00 in0.0 mm
03:20 AM 59.2°F15.1°C 44.4°F6.9°C 58% 10.4 mph SSE16.7 kmh SSE 19.6 mph31.5 kmh 30.10 in1019.3 mb - 0.00 in0.0 mm 0.00 in0.0 mm
03:10 AM 59.5°F15.3°C 45.6°F7.6°C 60% 2.3 mph NNE3.7 kmh NNE 4.6 mph7.4 kmh 30.11 in1019.6 mb - 0.00 in0.0 mm 0.00 in0.0 mm
03:00 AM 59.5°F15.3°C 45.2°F7.3°C 59% 5.8 mph S9.3 kmh S 13.8 mph22.2 kmh 30.12 in1020.0 mb - 0.00 in0.0 mm 0.00 in0.0 mm
02:50 AM 59.2°F15.1°C 44.4°F6.9°C 58% 15.0 mph E24.1 kmh E 19.6 mph31.5 kmh 30.11 in1019.6 mb - 0.00 in0.0 mm 0.00 in0.0 mm
02:40 AM 59.2°F15.1°C 44.4°F6.9°C 58% 9.2 mph SSE14.8 kmh SSE 17.3 mph27.8 kmh 30.11 in1019.6 mb - 0.00 in0.0 mm 0.00 in0.0 mm
02:30 AM 59.0°F15.0°C 43.7°F6.5°C 57% 17.3 mph S27.8 kmh S 42.6 mph68.6 kmh 30.10 in1019.3 mb - 0.00 in0.0 mm 0.00 in0.0 mm
02:20 AM 59.0°F15.0°C 43.8°F6.6°C 57% 17.3 mph S27.8 kmh S 32.2 mph51.8 kmh 30.10 in1019.3 mb - 0.00 in0.0 mm 0.00 in0.0 mm
02:10 AM 59.4°F15.2°C 44.6°F7.0°C 58% 4.6 mph NE7.4 kmh NE 6.9 mph11.1 kmh 30.11 in1019.6 mb - 0.00 in0.0 mm 0.00 in0.0 mm
02:00 AM 59.5°F15.3°C 45.2°F7.3°C 59% 4.6 mph ENE7.4 kmh ENE 6.9 mph11.1 kmh 30.11 in1019.6 mb - 0.00 in0.0 mm 0.00 in0.0 mm
01:50 AM 59.3°F15.2°C 44.5°F6.9°C 58% 9.2 mph S14.8 kmh S 25.3 mph40.7 kmh 30.11 in1019.6 mb - 0.00 in0.0 mm 0.00 in0.0 mm
01:40 AM 59.3°F15.2°C 44.5°F6.9°C 58% 12.7 mph S20.4 kmh S 16.1 mph25.9 kmh 30.12 in1020.0 mb - 0.00 in0.0 mm 0.00 in0.0 mm
01:30 AM 59.3°F15.2°C 44.5°F6.9°C 58% 11.5 mph SE18.5 kmh SE 16.1 mph25.9 kmh 30.11 in1019.6 mb - 0.00 in0.0 mm 0.00 in0.0 mm
01:20 AM 59.2°F15.1°C 44.5°F6.9°C 58% 13.8 mph SE22.2 kmh SE 27.6 mph44.4 kmh 30.11 in1019.6 mb - 0.00 in0.0 mm 0.00 in0.0 mm
01:10 AM 60.1°F15.6°C 44.8°F7.1°C 57% 4.6 mph E7.4 kmh E 13.8 mph22.2 kmh 30.11 in1019.6 mb - 0.00 in0.0 mm 0.00 in0.0 mm
01:00 AM 59.6°F15.3°C 44.4°F6.9°C 57% 2.3 mph S3.7 kmh S 12.7 mph20.4 kmh 30.12 in1020.0 mb - 0.00 in0.0 mm 0.00 in0.0 mm
12:50 AM 59.2°F15.1°C 44.5°F6.9°C 58% 12.7 mph SE20.4 kmh SE 15.0 mph24.1 kmh 30.11 in1019.6 mb - 0.00 in0.0 mm 0.00 in0.0 mm
12:40 AM 59.2°F15.1°C 44.0°F6.7°C 57% 12.7 mph SSE20.4 kmh SSE 13.8 mph22.2 kmh 30.12 in1020.0 mb - 0.00 in0.0 mm 0.00 in0.0 mm
12:30 AM 59.4°F15.2°C 43.7°F6.5°C 56% 18.4 mph SE29.6 kmh SE 25.3 mph40.7 kmh 30.12 in1020.0 mb - 0.00 in0.0 mm 0.00 in0.0 mm
12:20 AM 59.3°F15.2°C 45.0°F7.2°C 59% 13.8 mph SE22.2 kmh SE 20.7 mph33.3 kmh 30.12 in1020.0 mb - 0.00 in0.0 mm 0.00 in0.0 mm
12:10 AM 59.2°F15.1°C 44.9°F7.2°C 59% 11.5 mph SE18.5 kmh SE 17.3 mph27.8 kmh 30.13 in1020.3 mb - 0.00 in0.0 mm 0.00 in0.0 mm
12:00 AM 59.4°F15.2°C 44.6°F7.0°C 58% 11.5 mph S18.5 kmh S 17.3 mph27.8 kmh 30.13 in1020.3 mb - 0.00 in0.0 mm 0.00 in0.0 mm